Time;durP1;ratioP1;P1;durP2;ratioP2;P2;SDS_P1;SDS_P2;PMS_P1;PMS_P2;Temp;Humidity;BMP_temperature;BMP_pressure;BME280_temperature;BME280_humidity;BME280_pressure;Samples;Min_cycle;Max_cycle;Signal;HPM_P1;HPM_P2
2022/07/27 00:01:21;;;;;;;5.28;1.73;;;13.40;99.90;;;;;;4982268;28;20063;-81
2022/07/27 00:03:47;;;;;;;6.32;1.70;;;13.40;99.90;;;;;;4995588;28;20713;-81
2022/07/27 00:06:13;;;;;;;4.88;1.45;;;13.40;99.90;;;;;;5013828;28;20641;-81
2022/07/27 00:08:40;;;;;;;6.63;1.92;;;13.40;99.90;;;;;;4971764;28;20444;-81
2022/07/27 00:11:07;;;;;;;3.50;1.40;;;13.40;99.90;;;;;;4999629;28;20126;-81
2022/07/27 00:13:33;;;;;;;6.22;2.10;;;13.40;99.90;;;;;;5017530;28;20687;-81
2022/07/27 00:15:59;;;;;;;5.40;1.50;;;13.50;99.90;;;;;;4988166;28;20128;-81
2022/07/27 00:18:25;;;;;;;4.80;1.90;;;13.50;99.90;;;;;;5003169;28;20358;-81
2022/07/27 00:20:50;;;;;;;5.15;1.88;;;13.60;99.90;;;;;;5002428;28;20045;-78
2022/07/27 00:23:16;;;;;;;4.65;1.80;;;13.50;99.90;;;;;;5019554;28;20050;-82
2022/07/27 00:25:42;;;;;;;6.55;2.00;;;13.50;99.90;;;;;;5010792;28;20049;-81
2022/07/27 00:28:08;;;;;;;5.47;2.20;;;13.50;99.90;;;;;;4988000;28;20072;-80
2022/07/27 00:30:34;;;;;;;5.85;1.98;;;13.50;99.90;;;;;;5017680;28;20603;-77
2022/07/27 00:32:59;;;;;;;3.95;2.00;;;13.40;99.90;;;;;;5010522;28;20045;-78
2022/07/27 00:35:25;;;;;;;5.53;1.80;;;13.40;99.90;;;;;;5002976;28;20041;-78
2022/07/27 00:37:51;;;;;;;5.35;1.85;;;13.40;99.90;;;;;;5005758;28;20049;-81
2022/07/27 00:40:17;;;;;;;4.78;1.88;;;13.30;99.90;;;;;;4993807;28;20524;-80
2022/07/27 00:42:42;;;;;;;6.38;2.05;;;13.30;99.90;;;;;;4986564;28;20041;-80
2022/07/27 00:45:09;;;;;;;4.65;2.05;;;13.20;99.90;;;;;;5003407;28;20045;-81
2022/07/27 00:47:35;;;;;;;6.03;1.83;;;13.10;99.90;;;;;;5018142;28;20045;-81
2022/07/27 00:50:01;;;;;;;7.18;2.17;;;13.00;99.90;;;;;;5019698;28;20055;-81
2022/07/27 00:52:28;;;;;;;7.78;2.42;;;13.00;99.90;;;;;;5018341;28;20516;-78
2022/07/27 00:54:54;;;;;;;6.15;1.95;;;13.00;99.90;;;;;;4988875;28;20052;-77
2022/07/27 00:57:21;;;;;;;5.72;1.90;;;12.90;99.90;;;;;;5007830;28;20057;-81
2022/07/27 00:59:47;;;;;;;6.35;2.10;;;12.90;99.90;;;;;;5015528;28;21531;-80
2022/07/27 01:02:13;;;;;;;7.03;2.15;;;13.00;99.90;;;;;;5015925;28;20053;-81
2022/07/27 01:04:39;;;;;;;7.07;1.80;;;13.00;99.90;;;;;;4980690;28;20045;-80
2022/07/27 01:07:11;;;;;;;6.75;2.35;;;13.00;99.90;;;;;;5001632;28;20103;-80
2022/07/27 01:09:56;;;;;;;7.07;2.90;;;13.00;99.90;;;;;;4995433;28;20034;-80
2022/07/27 01:12:22;;;;;;;6.22;2.30;;;12.90;99.90;;;;;;4989459;28;20103;-80
2022/07/27 01:14:49;;;;;;;6.28;2.70;;;12.90;99.90;;;;;;5015623;28;20088;-78
2022/07/27 01:17:16;;;;;;;6.00;2.80;;;13.00;99.90;;;;;;5018428;28;20567;-77
2022/07/27 01:19:42;;;;;;;9.52;2.65;;;12.90;99.90;;;;;;5000525;28;20073;-81
2022/07/27 01:22:08;;;;;;;7.47;2.63;;;12.90;99.90;;;;;;5022141;28;20076;-80
2022/07/27 01:24:34;;;;;;;7.30;2.88;;;12.80;99.90;;;;;;5018795;28;20056;-80
2022/07/27 01:27:01;;;;;;;7.43;2.60;;;12.80;99.90;;;;;;4987812;28;20052;-80
2022/07/27 01:29:27;;;;;;;7.55;2.47;;;12.90;99.90;;;;;;5014549;28;20037;-82
2022/07/27 01:31:53;;;;;;;6.47;2.83;;;12.80;99.90;;;;;;5014119;28;20134;-81
2022/07/27 01:34:19;;;;;;;6.85;3.10;;;12.80;99.90;;;;;;5005015;28;20041;-80
2022/07/27 01:36:47;;;;;;;6.18;3.00;;;12.80;99.90;;;;;;4994249;28;20109;-81
2022/07/27 01:39:14;;;;;;;8.55;3.50;;;12.80;99.90;;;;;;4994915;28;20084;-81
2022/07/27 01:41:40;;;;;;;9.50;3.50;;;12.80;99.90;;;;;;5020330;28;20045;-80
2022/07/27 01:44:06;;;;;;;6.65;2.45;;;12.80;99.90;;;;;;4990961;28;20048;-81
2022/07/27 01:46:32;;;;;;;4.78;2.60;;;12.80;99.90;;;;;;5003163;28;20107;-81
2022/07/27 01:48:57;;;;;;;5.63;2.40;;;12.70;99.90;;;;;;5004263;28;20114;-81
2022/07/27 01:51:23;;;;;;;7.35;2.47;;;12.70;99.90;;;;;;4988809;28;20236;-81
2022/07/27 01:53:49;;;;;;;7.32;2.67;;;12.70;99.90;;;;;;4998539;28;20048;-81
2022/07/27 01:56:15;;;;;;;9.02;3.00;;;12.60;99.90;;;;;;4980636;28;20689;-80
2022/07/27 01:58:47;;;;;;;9.75;3.45;;;12.50;99.90;;;;;;5007745;28;20041;-77
2022/07/27 02:01:13;;;;;;;6.03;2.08;;;12.50;99.90;;;;;;5001048;28;20049;-77
2022/07/27 02:03:39;;;;;;;6.88;2.95;;;12.40;99.90;;;;;;5006063;28;20046;-77
2022/07/27 02:06:05;;;;;;;6.85;3.08;;;12.40;99.90;;;;;;5021211;28;20159;-77
2022/07/27 02:08:31;;;;;;;5.40;2.20;;;12.30;99.90;;;;;;4989230;28;20056;-77
2022/07/27 02:13:43;;;;;;;4.88;2.08;;;12.30;99.90;;;;;;5018623;28;20053;-80
2022/07/27 02:16:09;;;;;;;5.03;2.40;;;12.20;99.90;;;;;;4990208;28;20122;-80
2022/07/27 02:18:35;;;;;;;6.28;3.25;;;12.20;99.90;;;;;;5007702;28;20046;-80
2022/07/27 02:21:00;;;;;;;7.97;3.67;;;12.10;99.90;;;;;;5000568;28;20289;-80
2022/07/27 02:23:27;;;;;;;7.75;3.42;;;12.10;99.90;;;;;;5021014;28;20071;-80
2022/07/27 02:25:53;;;;;;;4.93;2.28;;;12.10;99.90;;;;;;5023193;28;20072;-80
2022/07/27 02:28:18;;;;;;;7.50;2.78;;;12.00;99.90;;;;;;5007638;28;20083;-80
2022/07/27 02:30:45;;;;;;;11.63;3.92;;;12.00;99.90;;;;;;5007482;28;20037;-80
2022/07/27 02:33:11;;;;;;;6.40;4.00;;;11.90;99.90;;;;;;5006581;28;20049;-80
2022/07/27 02:35:37;;;;;;;7.90;2.45;;;11.90;99.90;;;;;;4992234;28;20110;-80
2022/07/27 02:38:02;;;;;;;9.48;3.88;;;11.90;99.90;;;;;;5020610;28;20565;-80
2022/07/27 02:40:28;;;;;;;6.45;3.60;;;11.90;99.90;;;;;;4998696;28;20045;-80
2022/07/27 02:42:54;;;;;;;6.68;3.35;;;11.80;99.90;;;;;;5013776;28;20409;-80
2022/07/27 02:45:20;;;;;;;6.65;3.00;;;11.80;99.90;;;;;;5009473;28;20072;-80
2022/07/27 02:47:46;;;;;;;7.50;3.85;;;11.70;99.90;;;;;;5002884;28;20048;-80
2022/07/27 02:50:12;;;;;;;6.90;3.83;;;11.70;99.90;;;;;;5017394;28;20034;-80
2022/07/27 02:52:38;;;;;;;5.55;2.45;;;11.60;99.90;;;;;;5022838;28;20037;-79
2022/07/27 02:55:05;;;;;;;8.75;3.60;;;11.60;99.90;;;;;;5008002;28;20073;-80
2022/07/27 02:57:33;;;;;;;6.80;3.70;;;11.50;99.90;;;;;;5014216;28;20060;-79
2022/07/27 02:59:59;;;;;;;8.75;3.70;;;11.50;99.90;;;;;;5014100;28;20081;-79
2022/07/27 03:02:25;;;;;;;6.20;3.10;;;11.50;99.90;;;;;;4996883;28;20056;-80
2022/07/27 03:04:51;;;;;;;5.88;2.50;;;11.40;99.90;;;;;;5037072;28;20045;-79
2022/07/27 03:07:16;;;;;;;3.92;2.20;;;11.40;99.90;;;;;;5015514;28;20046;-80
2022/07/27 03:09:42;;;;;;;5.25;2.42;;;11.40;99.90;;;;;;5003884;28;20288;-79
2022/07/27 03:12:08;;;;;;;5.00;2.13;;;11.40;99.90;;;;;;5019211;28;20045;-79
2022/07/27 03:14:34;;;;;;;6.13;2.40;;;11.40;99.90;;;;;;5008228;28;20055;-79
2022/07/27 03:17:00;;;;;;;5.13;2.13;;;11.40;99.90;;;;;;4989624;28;20037;-79
2022/07/27 03:19:27;;;;;;;3.45;2.00;;;11.40;99.90;;;;;;5008987;28;20506;-79
2022/07/27 03:21:53;;;;;;;8.68;3.22;;;11.40;99.90;;;;;;5016356;28;20475;-78
2022/07/27 03:24:19;;;;;;;5.88;2.95;;;11.30;99.90;;;;;;5010928;28;20050;-78
2022/07/27 03:26:45;;;;;;;6.30;3.42;;;11.30;99.90;;;;;;5018187;28;20033;-79
2022/07/27 03:29:12;;;;;;;7.80;4.70;;;11.20;99.90;;;;;;5007904;28;20047;-78
2022/07/27 03:31:38;;;;;;;6.63;3.20;;;11.20;99.90;;;;;;5024101;28;20443;-78
2022/07/27 03:34:04;;;;;;;6.05;2.90;;;11.10;99.90;;;;;;5021771;28;20045;-78
2022/07/27 03:36:30;;;;;;;5.35;2.75;;;11.10;99.90;;;;;;4994779;28;20049;-78
2022/07/27 03:38:55;;;;;;;4.75;2.40;;;11.10;99.90;;;;;;5005942;28;20045;-78
2022/07/27 03:41:21;;;;;;;5.15;2.78;;;11.10;99.90;;;;;;5005733;28;20515;-79
2022/07/27 03:43:47;;;;;;;4.15;2.25;;;11.10;99.90;;;;;;5007570;28;20049;-79
2022/07/27 03:46:12;;;;;;;7.10;3.33;;;11.20;99.90;;;;;;5025245;28;20053;-78
2022/07/27 03:48:39;;;;;;;5.60;2.50;;;11.20;99.90;;;;;;5008771;28;20052;-78
2022/07/27 03:51:05;;;;;;;5.22;2.65;;;11.20;99.90;;;;;;5017648;28;20064;-78
2022/07/27 03:53:31;;;;;;;6.28;3.20;;;11.30;99.90;;;;;;5019908;28;20049;-78
2022/07/27 03:55:57;;;;;;;8.95;4.00;;;11.30;99.90;;;;;;5015881;28;20135;-78
2022/07/27 03:58:25;;;;;;;5.10;2.55;;;11.30;99.90;;;;;;5007491;28;20045;-78
2022/07/27 04:00:51;;;;;;;4.93;2.78;;;11.30;99.90;;;;;;5037941;28;20069;-78
2022/07/27 04:03:17;;;;;;;6.95;3.55;;;11.40;99.90;;;;;;5001827;28;20046;-78
2022/07/27 04:05:43;;;;;;;5.03;2.60;;;11.40;99.90;;;;;;5020324;28;20132;-78
2022/07/27 04:08:09;;;;;;;7.85;2.90;;;11.40;99.90;;;;;;5004449;28;20560;-79
2022/07/27 04:10:35;;;;;;;5.70;2.80;;;11.40;99.90;;;;;;4999741;28;20038;-78
2022/07/27 04:13:01;;;;;;;6.20;2.90;;;11.50;99.90;;;;;;5017039;28;20042;-79
2022/07/27 04:15:27;;;;;;;6.75;2.75;;;11.60;99.90;;;;;;4983047;28;20041;-78
2022/07/27 04:17:56;;;;;;;4.53;2.65;;;11.60;99.90;;;;;;5001269;28;20046;-79
2022/07/27 04:20:22;;;;;;;6.63;2.92;;;11.70;99.90;;;;;;5009067;28;20064;-79
2022/07/27 04:22:48;;;;;;;5.72;3.55;;;11.70;99.90;;;;;;5022790;28;20076;-79
2022/07/27 04:25:14;;;;;;;8.77;3.70;;;11.80;99.90;;;;;;5004836;28;20096;-79
2022/07/27 04:27:39;;;;;;;6.75;3.78;;;11.80;99.90;;;;;;5008181;28;20568;-79
2022/07/27 04:30:06;;;;;;;7.15;3.08;;;11.80;99.90;;;;;;4999667;28;20096;-80
2022/07/27 04:32:32;;;;;;;6.68;3.75;;;11.90;99.90;;;;;;5011312;28;20048;-79
2022/07/27 04:35:01;;;;;;;6.22;2.88;;;11.90;99.90;;;;;;5002649;28;20042;-79
2022/07/27 04:37:27;;;;;;;5.28;3.03;;;12.00;99.90;;;;;;5014709;28;20248;-79
2022/07/27 04:39:56;;;;;;;6.13;3.63;;;12.00;99.90;;;;;;4996498;28;20575;-79
2022/07/27 04:42:23;;;;;;;10.10;3.97;;;12.10;99.90;;;;;;5023378;28;20061;-79
2022/07/27 04:44:49;;;;;;;7.32;3.58;;;12.10;99.90;;;;;;5023026;28;20046;-80
2022/07/27 04:47:15;;;;;;;9.00;4.50;;;12.10;99.90;;;;;;5013331;28;20057;-79
2022/07/27 04:49:41;;;;;;;9.65;4.55;;;12.20;99.90;;;;;;5008109;28;20037;-79
2022/07/27 04:52:07;;;;;;;9.60;3.30;;;12.20;99.90;;;;;;4986374;28;20578;-79
2022/07/27 04:54:33;;;;;;;9.55;4.00;;;12.20;99.90;;;;;;5002864;28;20045;-79
2022/07/27 04:56:58;;;;;;;5.70;3.53;;;12.20;99.90;;;;;;4996615;28;20142;-79
2022/07/27 04:59:24;;;;;;;9.27;4.53;;;12.30;99.90;;;;;;5014020;28;20081;-79
2022/07/27 05:01:50;;;;;;;7.57;4.50;;;12.30;99.90;;;;;;5014569;28;20054;-79
2022/07/27 05:04:16;;;;;;;8.02;3.90;;;12.30;99.90;;;;;;5007137;28;20081;-79
2022/07/27 05:06:41;;;;;;;8.23;3.97;;;12.40;99.90;;;;;;5004710;28;20046;-80
2022/07/27 05:09:07;;;;;;;9.63;3.88;;;12.40;99.90;;;;;;5036406;28;20037;-80
2022/07/27 05:11:33;;;;;;;7.43;3.20;;;12.50;99.90;;;;;;5012033;28;20046;-80
2022/07/27 05:13:59;;;;;;;8.43;2.67;;;12.50;99.90;;;;;;5016725;28;20467;-80
2022/07/27 05:16:25;;;;;;;9.45;3.00;;;12.60;99.90;;;;;;4993705;28;20059;-79
2022/07/27 05:18:51;;;;;;;7.60;3.70;;;12.60;99.90;;;;;;5009416;28;20763;-80
2022/07/27 05:21:16;;;;;;;6.38;3.33;;;12.60;99.90;;;;;;5019051;28;20404;-80
2022/07/27 05:23:42;;;;;;;5.47;2.78;;;12.70;99.90;;;;;;5019313;28;20057;-80
2022/07/27 05:26:08;;;;;;;6.65;2.80;;;12.70;99.90;;;;;;4995572;28;20116;-80
2022/07/27 05:28:34;;;;;;;8.25;3.20;;;12.80;99.90;;;;;;5037518;28;20504;-81
2022/07/27 05:31:00;;;;;;;6.60;3.67;;;12.90;99.90;;;;;;5006535;28;20073;-81
2022/07/27 05:33:25;;;;;;;7.68;3.20;;;12.90;99.90;;;;;;5006437;28;20041;-80
2022/07/27 05:35:51;;;;;;;5.78;2.63;;;13.00;99.90;;;;;;5006603;28;20752;-81
2022/07/27 05:38:17;;;;;;;4.40;2.40;;;13.00;99.90;;;;;;5017270;28;20085;-80
2022/07/27 05:40:44;;;;;;;7.88;2.97;;;13.10;99.90;;;;;;5001569;28;20496;-80
2022/07/27 05:43:10;;;;;;;7.57;2.42;;;13.10;99.90;;;;;;5015051;28;20069;-81
2022/07/27 05:45:37;;;;;;;11.38;3.60;;;13.10;99.90;;;;;;5009880;28;20081;-80
2022/07/27 05:48:03;;;;;;;9.23;2.90;;;13.20;99.90;;;;;;5011035;28;20049;-80
2022/07/27 05:50:28;;;;;;;7.85;3.22;;;13.20;99.90;;;;;;4988163;28;20119;-81
2022/07/27 05:52:57;;;;;;;7.53;2.78;;;13.20;99.90;;;;;;5017887;28;20045;-80
2022/07/27 05:55:24;;;;;;;9.77;3.05;;;13.30;99.90;;;;;;5007046;28;20120;-81
2022/07/27 05:57:50;;;;;;;7.65;2.83;;;13.30;99.90;;;;;;5004792;28;20042;-80
2022/07/27 06:00:16;;;;;;;10.95;3.53;;;13.40;99.90;;;;;;5002758;28;20064;-81
2022/07/27 06:02:42;;;;;;;8.13;2.80;;;13.50;99.90;;;;;;5011808;28;20045;-81
2022/07/27 06:05:09;;;;;;;6.18;2.55;;;13.50;99.90;;;;;;5022730;28;20046;-81
2022/07/27 06:10:19;;;;;;;7.47;3.13;;;13.70;99.90;;;;;;5018328;28;20042;-81
2022/07/27 06:12:45;;;;;;;7.90;3.50;;;13.80;99.90;;;;;;5007252;28;20096;-81
2022/07/27 06:15:12;;;;;;;8.40;3.33;;;13.80;99.90;;;;;;5011689;28;20128;-80
2022/07/27 06:17:38;;;;;;;8.82;3.15;;;13.80;99.90;;;;;;5017040;28;20050;-80
2022/07/27 06:20:06;;;;;;;11.43;3.67;;;13.80;99.90;;;;;;5006376;28;20535;-81
2022/07/27 06:22:42;;;;;;;8.45;3.88;;;13.90;99.90;;;;;;5002139;28;20758;-80
2022/07/27 06:25:08;;;;;;;6.43;2.85;;;13.90;99.90;;;;;;5019367;28;20117;-81
2022/07/27 06:27:36;;;;;;;6.15;2.60;;;13.90;99.90;;;;;;5016022;28;20081;-80
2022/07/27 06:30:03;;;;;;;7.38;3.58;;;13.90;99.90;;;;;;4982264;28;20043;-81
2022/07/27 06:32:29;;;;;;;9.93;3.30;;;14.00;99.90;;;;;;4994748;28;20485;-80
2022/07/27 06:34:55;;;;;;;6.32;2.85;;;14.10;99.90;;;;;;4986936;28;20051;-81
2022/07/27 06:37:20;;;;;;;7.65;2.47;;;14.20;99.90;;;;;;5001053;28;20421;-81
2022/07/27 06:39:46;;;;;;;7.28;2.78;;;14.20;99.90;;;;;;5003480;28;20052;-81
2022/07/27 06:42:13;;;;;;;7.30;2.60;;;14.30;99.90;;;;;;4995923;28;20437;-80
2022/07/27 06:44:39;;;;;;;7.68;2.83;;;14.30;99.90;;;;;;5015926;28;20077;-80
2022/07/27 06:47:06;;;;;;;5.82;2.83;;;14.30;99.90;;;;;;5014536;28;20037;-80
2022/07/27 06:49:32;;;;;;;6.18;2.08;;;14.40;99.90;;;;;;5001052;28;20346;-80
2022/07/27 06:51:58;;;;;;;7.65;2.42;;;14.50;99.90;;;;;;5002446;28;20468;-80
2022/07/27 06:54:24;;;;;;;5.80;2.28;;;14.50;99.90;;;;;;4980142;28;20067;-81
2022/07/27 06:56:50;;;;;;;6.80;2.30;;;14.60;99.90;;;;;;5012949;28;20041;-81
2022/07/27 06:59:18;;;;;;;5.75;1.70;;;14.60;99.90;;;;;;5000715;28;20103;-81
2022/07/27 07:01:44;;;;;;;8.60;2.28;;;14.70;99.90;;;;;;5008622;28;20046;-80
2022/07/27 07:04:11;;;;;;;5.72;1.90;;;14.70;99.90;;;;;;5001326;28;20037;-81
2022/07/27 07:06:37;;;;;;;5.05;1.85;;;14.80;99.90;;;;;;4985964;28;20041;-80
2022/07/27 07:09:03;;;;;;;10.25;2.40;;;14.90;99.90;;;;;;5014417;28;20385;-77
2022/07/27 07:11:29;;;;;;;5.50;1.80;;;14.90;99.90;;;;;;5001087;28;20096;-77
2022/07/27 07:13:55;;;;;;;5.25;1.92;;;14.90;99.90;;;;;;4999947;28;20049;-77
2022/07/27 07:16:21;;;;;;;4.63;1.70;;;15.00;99.90;;;;;;5017344;28;20077;-80
2022/07/27 07:18:47;;;;;;;4.68;1.98;;;15.10;99.90;;;;;;5000099;28;20056;-80
2022/07/27 07:21:15;;;;;;;3.78;1.88;;;15.10;99.90;;;;;;4985677;28;20049;-81
2022/07/27 07:23:41;;;;;;;8.65;1.75;;;15.20;99.90;;;;;;5013583;28;20524;-78
2022/07/27 07:26:09;;;;;;;6.22;1.60;;;15.30;99.90;;;;;;4982282;28;20084;-77
2022/07/27 07:28:35;;;;;;;6.30;1.98;;;15.30;99.90;;;;;;5013053;28;20107;-80
2022/07/27 07:31:01;;;;;;;5.78;1.48;;;15.40;99.90;;;;;;4985464;28;20440;-81
2022/07/27 07:33:27;;;;;;;5.70;1.55;;;15.40;99.90;;;;;;4984922;28;20045;-81
2022/07/27 07:35:53;;;;;;;3.95;1.27;;;15.50;99.90;;;;;;4979804;28;20115;-81
2022/07/27 07:38:19;;;;;;;6.35;2.00;;;15.60;99.90;;;;;;5016915;28;20053;-81
2022/07/27 07:40:45;;;;;;;4.72;1.20;;;15.60;99.90;;;;;;5016110;28;20042;-81
2022/07/27 07:43:12;;;;;;;7.00;1.70;;;15.70;99.90;;;;;;5014954;28;20042;-81
2022/07/27 07:45:38;;;;;;;6.03;1.67;;;16.00;99.90;;;;;;5015219;28;20053;-81
2022/07/27 07:48:06;;;;;;;7.07;1.50;;;16.10;99.90;;;;;;5003657;28;20128;-80
2022/07/27 07:50:32;;;;;;;6.43;1.58;;;16.20;99.90;;;;;;4999707;28;20046;-77
2022/07/27 07:52:58;;;;;;;9.70;1.90;;;16.50;99.90;;;;;;4998049;28;20096;-78
2022/07/27 07:55:26;;;;;;;4.75;1.55;;;16.70;99.90;;;;;;5020575;28;20057;-82
2022/07/27 07:57:53;;;;;;;5.43;1.33;;;17.00;99.90;;;;;;5023242;28;20038;-81
2022/07/27 08:00:20;;;;;;;5.25;1.20;;;17.20;99.90;;;;;;5003357;28;20602;-81
2022/07/27 08:02:49;;;;;;;4.80;1.40;;;17.40;99.90;;;;;;5008850;28;20095;-82
2022/07/27 08:05:15;;;;;;;5.50;1.17;;;17.50;99.90;;;;;;5020268;28;20057;-80
2022/07/27 08:07:44;;;;;;;3.85;1.15;;;17.60;99.90;;;;;;5012478;28;20042;-82
2022/07/27 08:10:13;;;;;;;7.20;1.48;;;17.70;99.90;;;;;;5006182;28;20034;-82
2022/07/27 08:12:42;;;;;;;5.90;1.30;;;17.80;99.90;;;;;;5018895;28;20049;-81
2022/07/27 08:15:09;;;;;;;6.00;1.45;;;18.00;99.90;;;;;;5023428;28;20038;-83
2022/07/27 08:17:35;;;;;;;6.38;1.60;;;18.00;99.90;;;;;;5001696;28;20068;-82
2022/07/27 08:20:01;;;;;;;5.13;1.63;;;18.00;99.90;;;;;;4989636;28;20508;-82
2022/07/27 08:22:27;;;;;;;5.10;1.20;;;18.00;99.90;;;;;;5002920;28;20111;-82
2022/07/27 08:24:53;;;;;;;6.40;1.20;;;18.10;99.90;;;;;;5004147;28;20049;-83
2022/07/27 08:27:19;;;;;;;5.05;1.52;;;18.30;99.90;;;;;;4980264;28;20091;-81
2022/07/27 08:29:45;;;;;;;6.05;1.20;;;18.50;99.90;;;;;;5011281;28;20049;-82
2022/07/27 08:32:13;;;;;;;6.43;1.33;;;18.50;99.90;;;;;;4996794;28;20202;-82
2022/07/27 08:34:39;;;;;;;6.20;1.50;;;18.50;99.90;;;;;;5027103;28;20033;-82
2022/07/27 08:37:05;;;;;;;6.25;1.30;;;18.40;99.90;;;;;;4993759;28;20500;-82
2022/07/27 08:39:31;;;;;;;7.82;1.40;;;18.30;99.90;;;;;;5023652;28;20459;-82
2022/07/27 08:41:59;;;;;;;5.75;1.38;;;18.30;99.90;;;;;;4993720;28;20507;-82
2022/07/27 08:44:29;;;;;;;5.27;1.10;;;18.30;99.90;;;;;;5016564;28;20041;-82
2022/07/27 08:46:56;;;;;;;5.90;1.50;;;18.40;99.90;;;;;;5027988;28;20053;-81
2022/07/27 08:49:22;;;;;;;4.85;1.40;;;18.30;99.90;;;;;;5022262;28;20073;-79
2022/07/27 08:51:49;;;;;;;6.90;1.88;;;18.10;99.90;;;;;;5020896;28;20072;-81
2022/07/27 08:54:15;;;;;;;5.90;1.58;;;17.80;99.90;;;;;;5025242;28;20084;-81
2022/07/27 08:56:42;;;;;;;6.03;1.30;;;17.50;99.90;;;;;;5007415;28;20672;-81
2022/07/27 08:59:08;;;;;;;5.18;1.35;;;17.30;99.90;;;;;;5025106;28;20104;-82
2022/07/27 09:01:37;;;;;;;4.20;0.90;;;17.20;99.90;;;;;;5024361;28;20049;-79
2022/07/27 09:04:03;;;;;;;5.28;1.23;;;17.10;99.90;;;;;;5026347;28;20103;-80
2022/07/27 09:06:42;;;;;;;7.50;1.52;;;17.00;99.90;;;;;;5020402;28;20128;-80
2022/07/27 09:09:09;;;;;;;3.67;1.10;;;17.00;99.90;;;;;;5003415;28;20072;-81
2022/07/27 09:11:36;;;;;;;6.82;1.20;;;16.90;99.90;;;;;;4995756;28;20045;-80
2022/07/27 09:14:04;;;;;;;6.88;1.60;;;16.90;99.90;;;;;;5021694;28;20045;-82
2022/07/27 09:16:30;;;;;;;3.70;1.35;;;17.00;99.90;;;;;;5017301;28;20085;-77
2022/07/27 09:19:04;;;;;;;5.22;1.42;;;17.00;99.90;;;;;;5018033;28;20668;-77
2022/07/27 09:21:30;;;;;;;4.38;1.50;;;17.10;99.90;;;;;;5022750;28;20055;-76
2022/07/27 09:24:12;;;;;;;5.47;1.30;;;17.10;99.90;;;;;;5023806;28;20049;-77
2022/07/27 09:26:38;;;;;;;4.55;1.20;;;17.10;99.90;;;;;;5038498;28;20056;-79
2022/07/27 09:29:04;;;;;;;4.65;1.23;;;17.10;99.90;;;;;;5001453;28;20470;-77
2022/07/27 09:31:32;;;;;;;5.95;1.33;;;17.10;99.90;;;;;;5017121;28;20128;-77
2022/07/27 09:34:00;;;;;;;4.78;1.55;;;17.20;99.90;;;;;;5025932;28;20041;-81
2022/07/27 09:36:27;;;;;;;3.50;1.10;;;17.20;99.90;;;;;;5010129;28;20081;-81
2022/07/27 09:39:01;;;;;;;4.78;1.02;;;17.20;99.90;;;;;;5006136;28;20053;-82
2022/07/27 09:41:39;;;;;;;4.57;1.35;;;17.20;99.90;;;;;;5022949;28;20038;-81
2022/07/27 09:44:05;;;;;;;5.70;1.25;;;17.20;99.90;;;;;;5014808;28;20053;-80
2022/07/27 09:46:36;;;;;;;6.82;1.40;;;17.20;99.90;;;;;;4988800;28;20053;-83
2022/07/27 09:49:03;;;;;;;4.97;1.20;;;17.40;99.90;;;;;;5019194;28;20085;-81
2022/07/27 09:51:29;;;;;;;3.58;1.13;;;17.80;99.90;;;;;;5024703;28;20516;-78
2022/07/27 09:53:56;;;;;;;5.10;1.30;;;18.10;99.90;;;;;;5034735;28;20147;-82
2022/07/27 09:56:30;;;;;;;7.28;1.60;;;18.20;99.90;;;;;;5007532;28;20492;-82
2022/07/27 09:58:58;;;;;;;7.55;1.23;;;18.30;99.90;;;;;;5014158;28;20045;-80
2022/07/27 10:01:33;;;;;;;3.53;1.10;;;18.40;99.90;;;;;;5025202;28;20076;-79
2022/07/27 10:04:06;;;;;;;4.22;1.00;;;18.30;99.90;;;;;;5024122;28;20211;-77
2022/07/27 10:06:32;;;;;;;5.93;1.08;;;18.30;99.90;;;;;;5020688;28;20054;-77
2022/07/27 10:08:59;;;;;;;3.25;0.90;;;18.40;99.90;;;;;;5044928;28;20049;-77
2022/07/27 10:11:25;;;;;;;5.25;0.88;;;18.40;99.90;;;;;;5013251;28;20033;-78
2022/07/27 10:13:54;;;;;;;3.65;0.80;;;18.40;99.90;;;;;;5002397;28;20045;-77
2022/07/27 10:16:21;;;;;;;4.95;1.20;;;18.30;99.90;;;;;;5015897;28;20045;-79
2022/07/27 10:19:11;;;;;;;4.07;1.00;;;18.40;99.90;;;;;;4999430;28;20041;-78
2022/07/27 10:21:39;;;;;;;3.28;0.90;;;18.50;99.90;;;;;;5009063;28;20046;-78
2022/07/27 10:24:11;;;;;;;5.43;1.10;;;18.50;99.90;;;;;;5018219;28;20045;-82
2022/07/27 10:26:41;;;;;;;4.43;0.90;;;18.60;99.90;;;;;;5007643;28;20052;-82
2022/07/27 10:29:13;;;;;;;5.32;0.88;;;18.80;99.90;;;;;;5005513;28;20091;-83
2022/07/27 10:31:59;;;;;;;4.35;1.00;;;18.80;99.90;;;;;;5011952;28;20067;-83
2022/07/27 10:34:38;;;;;;;3.60;1.00;;;18.80;99.90;;;;;;5007404;28;20496;-82
2022/07/27 10:37:23;;;;;;;6.50;1.13;;;18.70;99.90;;;;;;5005698;28;20072;-80
2022/07/27 10:40:32;;;;;;;6.18;1.33;;;18.60;99.90;;;;;;5018132;28;20730;-83
2022/07/27 10:42:39;;;;;;;3.42;1.08;;;18.50;99.90;;;;;;5019853;28;20417;-81
2022/07/27 10:45:10;;;;;;;6.22;1.35;;;18.50;99.90;;;;;;5022614;28;20044;-83
2022/07/27 10:47:40;;;;;;;5.22;1.27;;;18.40;99.90;;;;;;4993408;28;20045;-82
2022/07/27 10:50:15;;;;;;;5.13;1.63;;;18.40;99.90;;;;;;5013394;28;20408;-82
2022/07/27 10:52:42;;;;;;;5.40;1.20;;;18.40;99.90;;;;;;4992529;28;20556;-82
2022/07/27 10:55:35;;;;;;;4.38;1.00;;;18.50;99.90;;;;;;5004212;28;20035;-81
2022/07/27 10:58:13;;;;;;;5.30;1.15;;;18.50;99.90;;;;;;5001456;28;20145;-81
2022/07/27 11:00:58;;;;;;;7.10;1.42;;;18.70;99.90;;;;;;5013594;28;20059;-83
2022/07/27 11:03:33;;;;;;;9.55;1.92;;;18.80;99.90;;;;;;5021745;28;20050;-81
2022/07/27 11:06:08;;;;;;;5.43;1.10;;;19.00;99.90;;;;;;4989954;28;20038;-82
2022/07/27 11:08:34;;;;;;;5.35;1.30;;;19.20;98.20;;;;;;5024177;28;20061;-81
2022/07/27 11:11:01;;;;;;;3.22;0.93;;;19.30;97.40;;;;;;5007324;28;20045;-81
2022/07/27 11:13:29;;;;;;;22.00;5.80;;;19.20;97.50;;;;;;4988812;28;20053;-81
2022/07/27 11:16:01;;;;;;;3.45;1.40;;;19.20;97.90;;;;;;5005190;28;20036;-82
2022/07/27 11:18:27;;;;;;;4.22;0.90;;;19.20;99.50;;;;;;5017261;28;20049;-81
2022/07/27 11:21:32;;;;;;;7.47;1.02;;;19.10;97.80;;;;;;5017842;28;20124;-83
2022/07/27 11:24:02;;;;;;;4.68;0.93;;;19.00;99.90;;;;;;5018908;28;20044;-82
2022/07/27 11:26:29;;;;;;;;;;;19.10;99.90;;;;;;5004991;28;20423;-82
2022/07/27 11:28:56;;;;;;;3.20;0.85;;;19.10;99.90;;;;;;5021070;28;19921;-82
2022/07/27 11:31:25;;;;;;;3.75;1.17;;;19.20;99.90;;;;;;5016978;28;20073;-81
2022/07/27 11:33:54;;;;;;;3.95;0.85;;;19.20;97.20;;;;;;5025110;28;20137;-82
2022/07/27 11:36:20;;;;;;;11.63;3.60;;;19.20;95.30;;;;;;5013674;28;20057;-80
2022/07/27 11:38:46;;;;;;;17.17;4.97;;;19.30;95.00;;;;;;5021235;28;20076;-81
2022/07/27 11:41:24;;;;;;;3.30;0.93;;;19.30;96.00;;;;;;5011823;28;20264;-81
2022/07/27 11:43:50;;;;;;;3.08;0.73;;;19.40;95.90;;;;;;5017883;28;20041;-80
2022/07/27 11:46:17;;;;;;;6.40;1.55;;;19.50;91.80;;;;;;5019441;28;20117;-81
2022/07/27 11:48:57;;;;;;;7.43;1.70;;;19.60;91.60;;;;;;5018454;28;20429;-79
2022/07/27 11:51:23;;;;;;;4.97;1.25;;;19.80;90.80;;;;;;5017757;28;20041;-81
2022/07/27 11:54:01;;;;;;;3.55;0.70;;;20.00;90.00;;;;;;5008906;28;20505;-82
2022/07/27 11:56:30;;;;;;;2.33;0.68;;;20.10;83.60;;;;;;5011623;28;20069;-81
2022/07/27 11:59:30;;;;;;;3.53;0.77;;;20.00;79.80;;;;;;5017811;28;20072;-82
2022/07/27 12:02:24;;;;;;;4.18;0.80;;;19.90;82.10;;;;;;4985431;28;20107;-82
2022/07/27 12:04:50;;;;;;;2.97;0.90;;;19.90;91.00;;;;;;5016215;28;20520;-81
2022/07/27 12:07:31;;;;;;;5.95;0.80;;;19.80;90.00;;;;;;5025253;28;20492;-81
2022/07/27 12:10:02;;;;;;;4.78;0.60;;;19.80;87.70;;;;;;5026494;28;20037;-80
2022/07/27 12:12:30;;;;;;;7.93;1.20;;;19.80;85.10;;;;;;5025845;28;20539;-81
2022/07/27 12:15:00;;;;;;;3.50;1.52;;;19.80;85.70;;;;;;5009380;28;20085;-79
2022/07/27 12:17:36;;;;;;;3.83;1.10;;;19.90;83.60;;;;;;5014383;28;20049;-81
2022/07/27 12:20:11;;;;;;;8.32;2.55;;;20.00;80.40;;;;;;5044788;28;20123;-81
2022/07/27 12:22:44;;;;;;;4.38;0.80;;;20.10;79.30;;;;;;5023093;28;20041;-81
2022/07/27 12:25:24;;;;;;;3.42;1.05;;;19.90;80.20;;;;;;5041108;28;20966;-81
2022/07/27 12:28:00;;;;;;;3.35;0.50;;;19.80;84.30;;;;;;5007209;28;20130;-80
2022/07/27 12:30:32;;;;;;;3.72;0.90;;;19.60;84.40;;;;;;5026507;28;20581;-81
2022/07/27 12:32:58;;;;;;;3.28;0.60;;;19.50;86.80;;;;;;5010713;28;20049;-81
2022/07/27 12:35:27;;;;;;;2.30;0.52;;;19.40;86.50;;;;;;5005089;28;20033;-81
2022/07/27 12:38:01;;;;;;;2.05;0.60;;;19.40;86.50;;;;;;5022391;28;20570;-79
2022/07/27 12:40:28;;;;;;;2.63;0.60;;;19.50;85.90;;;;;;5022261;28;20060;-78
2022/07/27 12:43:05;;;;;;;2.97;0.77;;;19.40;84.90;;;;;;5018013;28;20048;-82
2022/07/27 12:45:41;;;;;;;2.80;0.60;;;19.50;83.40;;;;;;5032086;28;20049;-82
2022/07/27 12:48:17;;;;;;;2.83;0.60;;;19.60;85.00;;;;;;5021536;28;20049;-82
2022/07/27 12:50:45;;;;;;;4.78;1.05;;;19.60;83.20;;;;;;5004520;28;20049;-80
2022/07/27 12:53:13;;;;;;;4.82;0.90;;;19.60;85.10;;;;;;5023667;28;20041;-81
2022/07/27 12:55:41;;;;;;;3.25;0.60;;;19.90;90.30;;;;;;5023390;28;20045;-80
2022/07/27 12:58:09;;;;;;;2.28;0.80;;;20.20;88.70;;;;;;4989603;28;20049;-77